ADDS METAR Data INFO
IDs: Format: Raw Decoded Include TAF

Data at: 1944 UTC 17 Feb 2018

KLXN 171935Z AUTO 30011KT 10SM CLR 07/M02 A3006 RMK AO2 T00661022
KLXN 171915Z AUTO 30010KT 10SM CLR 07/M03 A3006 RMK AO2 T00651028
KLXN 171855Z AUTO 29012KT 10SM CLR 06/M03 A3007 RMK AO2 T00621026
KLXN 171835Z AUTO 30012KT 10SM CLR 06/M03 A3008 RMK AO2 T00601029
KLXN 171815Z AUTO 30012KT 10SM CLR 06/M03 A3007 RMK AO2 T00551027
KLXN 171755Z AUTO 30010G14KT 10SM CLR 06/M03 A3007 RMK AO2 T00551032 10055 21065
KLXN 171735Z AUTO 29008KT 10SM CLR 05/M03 A3007 RMK AO2 T00481028
KLXN 171715Z AUTO 27006KT 10SM CLR 04/M03 A3007 RMK AO2 T00401030
KLXN 171655Z AUTO 29007KT 10SM CLR 04/M04 A3006 RMK AO2 T00351036
KLXN 171635Z AUTO 28009KT 10SM CLR 02/M03 A3005 RMK AO2 T00221031
KLXN 171615Z AUTO 29010KT 10SM CLR 01/M03 A3004 RMK AO2 T00091033
KLXN 171555Z AUTO 30010KT 10SM CLR 00/M04 A3003 RMK AO2 T10011039
KLXN 171535Z AUTO 30010KT 10SM CLR M01/M04 A3001 RMK AO2 T10061042
KLXN 171515Z AUTO 30013KT 10SM CLR M01/M05 A3000 RMK AO2 T10111046
KLXN 171455Z AUTO 30013KT 10SM CLR M03/M06 A3000 RMK AO2 T10291057
KLXN 171435Z AUTO 29010KT 10SM CLR M04/M06 A2999 RMK AO2 T10391065
KLXN 171415Z AUTO 30007KT 10SM CLR M05/M07 A2997 RMK AO2 T10511075
KLXN 171355Z AUTO 29007KT 10SM CLR M05/M08 A2997 RMK AO2 T10531076
KLXN 171335Z AUTO 31009KT 10SM CLR M06/M08 A2996 RMK AO2 T10611083
KLXN 171315Z AUTO 34007KT 10SM CLR M06/M09 A2995 RMK AO2 T10631088
KLXN 171255Z AUTO 31006KT 10SM CLR M06/M08 A2993 RMK AO2 T10611084
KLXN 171235Z AUTO 30005KT 10SM CLR M06/M08 A2992 RMK AO2 T10581082
KLXN 171215Z AUTO 27006KT 10SM CLR M05/M08 A2992 RMK AO2 T10491076
KLXN 171155Z AUTO 30003KT 10SM CLR M05/M08 A2991 RMK AO2 T10461077 11010 21047
KLXN 171135Z AUTO 32006KT 10SM CLR M04/M08 A2991 RMK AO2 T10431076
KLXN 171115Z AUTO 33006KT 10SM CLR M03/M08 A2990 RMK AO2 T10331076
KLXN 171055Z AUTO 25004KT 10SM CLR M02/M07 A2987 RMK AO2 T10251072
KLXN 171035Z AUTO 23011KT 10SM CLR M02/M07 A2985 RMK AO2 T10231072
KLXN 171015Z AUTO 21013KT 10SM CLR M02/M07 A2984 RMK AO2 T10191071
KLXN 170955Z AUTO 21014KT 10SM CLR M02/M07 A2983 RMK AO2 T10171071
KLXN 170935Z AUTO 22010KT 10SM CLR M02/M07 A2985 RMK AO2 T10181070
KLXN 170915Z AUTO 21014KT 10SM CLR M01/M07 A2984 RMK AO2 T10151070
KLXN 170855Z AUTO 20012G16KT 10SM SCT120 M01/M07 A2984 RMK AO2 T10151067
KLXN 170835Z AUTO 19012KT 10SM CLR M01/M06 A2985 RMK AO2 T10141065
KLXN 170815Z AUTO 19014G19KT 10SM CLR M01/M06 A2986 RMK AO2 T10121065
KLXN 170755Z AUTO 17011KT 10SM CLR M02/M06 A2987 RMK AO2 T10161065
KLXN 170735Z AUTO 18009KT 10SM CLR M01/M06 A2988 RMK AO2 T10151065
KLXN 170715Z AUTO 19010KT 10SM CLR M01/M07 A2990 RMK AO2 T10151066
KLXN 170655Z AUTO 19011KT 10SM CLR M01/M06 A2990 RMK AO2 T10111065
KLXN 170635Z AUTO 19010KT 10SM CLR M01/M06 A2990 RMK AO2 T10111065
KLXN 170615Z AUTO 17008KT 10SM CLR M01/M07 A2991 RMK AO2 T10101067
KLXN 170555Z AUTO 17010KT 10SM CLR M01/M07 A2991 RMK AO2 T10111067 10010 21015 400211113
KLXN 170535Z AUTO 17008KT 10SM CLR M01/M07 A2991 RMK AO2 T10111067
KLXN 170515Z AUTO 16008KT 10SM CLR M01/M07 A2992 RMK AO2 T10111067
KLXN 170455Z AUTO 16013KT 10SM CLR M01/M07 A2991 RMK AO2 T10121068
KLXN 170435Z AUTO 16008KT 10SM CLR M01/M07 A2994 RMK AO2 T10111067
KLXN 170415Z AUTO 17008KT 10SM CLR M01/M07 A2996 RMK AO2 T10141066
KLXN 170355Z AUTO 16009KT 10SM CLR M01/M07 A2996 RMK AO2 T10101066
KLXN 170335Z AUTO 17010KT 10SM CLR M01/M06 A2996 RMK AO2 T10101065
KLXN 170315Z AUTO 17010KT 10SM CLR M01/M06 A2998 RMK AO2 T10111065
KLXN 170255Z AUTO 14007KT 10SM CLR M01/M06 A2999 RMK AO2 T10101063
KLXN 170235Z AUTO 15009KT 10SM CLR M01/M06 A3000 RMK AO2 T10101061
KLXN 170215Z AUTO 16009KT 10SM CLR M01/M06 A3000 RMK AO2 T10131060
KLXN 170155Z AUTO 14006KT 10SM CLR M01/M06 A3001 RMK AO2 T10101062
KLXN 170135Z AUTO 15008KT 10SM CLR M01/M06 A3002 RMK AO2 T10101060
KLXN 170115Z AUTO 16008KT 10SM CLR M01/M06 A3003 RMK AO2 T10071060
KLXN 170055Z AUTO 15009KT 10SM CLR 00/M06 A3003 RMK AO2 T10021061
KLXN 170035Z AUTO 16009KT 10SM CLR 00/M06 A3004 RMK AO2 T00011065
KLXN 170015Z AUTO 17011KT 10SM CLR 01/M06 A3004 RMK AO2 T00051062
KLXN 162355Z AUTO 17012KT 10SM CLR 01/M06 A3005 RMK AO2 T00101059 10021 21032
KLXN 162335Z AUTO 19013G20KT 10SM CLR 01/M06 A3006 RMK AO2 T00121061
KLXN 162315Z AUTO 18016KT 10SM CLR 02/M06 A3007 RMK AO2 T00191056
KLXN 162255Z AUTO 18012KT 10SM CLR 02/M06 A3009 RMK AO2 T00171057
KLXN 162235Z AUTO 19014G19KT 10SM CLR 02/M06 A3011 RMK AO2 T00181060
KLXN 162215Z AUTO 20014KT 10SM CLR 02/M06 A3012 RMK AO2 T00181059
KLXN 162155Z AUTO 19017G21KT 10SM CLR 02/M05 A3013 RMK AO2 T00191055
KLXN 162135Z AUTO 19013KT 10SM CLR 01/M06 A3013 RMK AO2 T00121057
KLXN 162115Z AUTO 20014G20KT 10SM CLR 01/M06 A3015 RMK AO2 T00061065
KLXN 162055Z AUTO 20014KT 10SM CLR 01/M07 A3017 RMK AO2 T00061066
KLXN 162035Z AUTO 20012KT 10SM CLR 00/M06 A3018 RMK AO2 T00031065
KLXN 162015Z AUTO 20008G11KT 10SM CLR 00/M07 A3020 RMK AO2 T00001073
KLXN 161955Z AUTO 21011G16KT 10SM CLR 00/M07 A3023 RMK AO2 T10021073
KLXN 161935Z AUTO 21011KT 10SM CLR M01/M08 A3025 RMK AO2 T10071077
KLXN 161915Z AUTO 20008KT 10SM CLR M01/M08 A3028 RMK AO2 T10101076
KLXN 161855Z AUTO 22011G16KT 10SM CLR M01/M08 A3031 RMK AO2 T10151079
KLXN 161835Z AUTO 23008KT 10SM CLR M02/M08 A3032 RMK AO2 T10201082
KLXN 161815Z AUTO 22009KT 10SM CLR M03/M09 A3034 RMK AO2 T10261088
KLXN 161755Z AUTO 20009KT 10SM CLR M03/M09 A3034 RMK AO2 T10321092 11032 21113
KLXN 161735Z AUTO 23008KT 10SM CLR M04/M10 A3036 RMK AO2 T10401099
KLXN 161715Z AUTO 22009KT 10SM CLR M04/M10 A3037 RMK AO2 T10431101
KLXN 161655Z AUTO 20008KT 10SM CLR M05/M11 A3037 RMK AO2 T10511110
KLXN 161635Z AUTO 23007KT 10SM CLR M06/M11 A3038 RMK AO2 T10591114
KLXN 161615Z AUTO 22006KT 10SM CLR M06/M12 A3038 RMK AO2 T10651118
KLXN 161555Z AUTO 24005KT 10SM CLR M07/M12 A3039 RMK AO2 T10721122
KLXN 161535Z AUTO 25004KT 10SM CLR M08/M12 A3039 RMK AO2 T10781121
KLXN 161515Z AUTO 22006KT 10SM CLR M08/M12 A3039 RMK AO2 T10851124
KLXN 161455Z AUTO 23004KT 10SM CLR M09/M13 A3040 RMK AO2 T10911127
KLXN 161435Z AUTO 24003KT 10SM CLR M10/M13 A3040 RMK AO2 T11001130
KLXN 161415Z AUTO 25003KT 10SM CLR M11/M13 A3040 RMK AO2 T11061134
KLXN 161355Z AUTO 29003KT 10SM CLR M11/M13 A3040 RMK AO2 T11091135
KLXN 161335Z AUTO 28004KT 10SM CLR M11/M14 A3041 RMK AO2 T11131140
KLXN 161315Z AUTO 29005KT 10SM CLR M11/M14 A3040 RMK AO2 T11101136
KLXN 161255Z AUTO 27004KT 10SM CLR M11/M14 A3041 RMK AO2 T11101137
KLXN 161235Z AUTO 28005KT 10SM CLR M11/M13 A3041 RMK AO2 T11071135
KLXN 161215Z AUTO 30004KT 10SM CLR M11/M13 A3041 RMK AO2 T11061135
KLXN 161155Z AUTO 29005KT 10SM CLR M11/M13 A3041 RMK AO2 T11071133 11070 21107
KLXN 161135Z AUTO 30004KT 10SM CLR M11/M13 A3041 RMK AO2 T11071132
KLXN 161115Z AUTO 32004KT 10SM CLR M10/M13 A3041 RMK AO2 T11051133
KLXN 161055Z AUTO 33006KT 10SM CLR M10/M13 A3041 RMK AO2 T11011131
KLXN 161035Z AUTO 32009KT 10SM CLR M10/M13 A3042 RMK AO2 T10971130
KLXN 161015Z AUTO 33009KT 10SM SCT016 M09/M13 A3042 RMK AO2 T10951127
KLXN 160955Z AUTO 33010KT 10SM BKN016 M09/M12 A3042 RMK AO2 T10901125
KLXN 160935Z AUTO 34010KT 10SM OVC018 M09/M12 A3042 RMK AO2 T10861120
KLXN 160915Z AUTO 34011KT 10SM -SN OVC018 M08/M12 A3042 RMK AO2 T10831117
KLXN 160855Z AUTO 35011KT 10SM OVC018 M08/M12 A3042 RMK AO2 T10851118
KLXN 160835Z AUTO 34013KT 10SM -SN OVC018 M08/M11 A3041 RMK AO2 T10791113
KLXN 160815Z AUTO 33013G17KT 10SM -SN OVC018 M08/M11 A3041 RMK AO2 T10781113
KLXN 160755Z AUTO 35018KT 10SM OVC018 M08/M11 A3040 RMK AO2 T10771110